Time,TemperatureF,DewpointF,PressureIn,WindDirection,WindDirectionDegrees,WindSpeedMPH,WindSpeedGustMPH,Humidity,HourlyPrecipIn,Conditions,Clouds,dailyrainin,SoftwareType,DateUTC
2013-04-20 00:00:00,39.2,31.0,30.53,West,277,0.0,0.0,72,0.00,,---,0.00,VWS V14.01,2013-04-20 05:00:00,
2013-04-20 00:01:00,39.2,31.0,30.53,West,277,0.0,0.0,72,0.00,,---,0.00,VWS V14.01,2013-04-20 05:01:00,
2013-04-20 00:06:00,39.1,31.2,30.53,West,277,0.0,0.0,73,0.00,,---,0.00,VWS V14.01,2013-04-20 05:06:00,
2013-04-20 00:10:00,38.9,31.0,30.53,West,277,0.0,0.0,73,0.00,,---,0.00,VWS V14.01,2013-04-20 05:10:00,
2013-04-20 00:11:00,38.9,31.0,30.53,West,277,0.0,0.0,73,0.00,,---,0.00,VWS V14.01,2013-04-20 05:11:00,
2013-04-20 00:16:00,38.8,31.2,30.53,West,277,0.0,0.0,74,0.00,,---,0.00,VWS V14.01,2013-04-20 05:16:00,
2013-04-20 00:20:00,38.6,31.0,30.53,West,277,0.0,0.0,74,0.00,,---,0.00,VWS V14.01,2013-04-20 05:20:00,
2013-04-20 00:21:00,38.6,31.0,30.53,West,277,0.0,0.0,74,0.00,,---,0.00,VWS V14.01,2013-04-20 05:21:00,
2013-04-20 00:26:00,38.5,31.0,30.53,West,277,0.0,0.0,74,0.00,,---,0.00,VWS V14.01,2013-04-20 05:26:00,
2013-04-20 00:30:00,38.5,31.3,30.53,West,277,0.0,0.0,75,0.00,,---,0.00,VWS V14.01,2013-04-20 05:30:00,
2013-04-20 00:31:00,38.3,31.1,30.53,West,277,0.0,0.0,75,0.00,,---,0.00,VWS V14.01,2013-04-20 05:31:00,
2013-04-20 00:36:00,38.3,31.1,30.53,West,277,0.0,0.0,75,0.00,,---,0.00,VWS V14.01,2013-04-20 05:36:00,
2013-04-20 00:40:00,38.3,31.1,30.53,West,277,0.0,0.0,75,0.00,,---,0.00,VWS V14.01,2013-04-20 05:40:00,
2013-04-20 00:41:00,38.3,31.1,30.53,West,277,0.0,0.0,75,0.00,,---,0.00,VWS V14.01,2013-04-20 05:41:00,
2013-04-20 00:46:00,38.2,31.0,30.53,West,277,0.0,0.0,75,0.00,,---,0.00,VWS V14.01,2013-04-20 05:46:00,
2013-04-20 00:50:00,38.0,30.8,30.53,West,277,0.0,0.0,75,0.00,,---,0.00,VWS V14.01,2013-04-20 05:50:00,
2013-04-20 00:51:00,38.0,30.8,30.53,West,277,0.0,0.0,75,0.00,,---,0.00,VWS V14.01,2013-04-20 05:51:00,
2013-04-20 00:56:00,37.9,30.7,30.53,West,277,0.0,0.0,75,0.00,,---,0.00,VWS V14.01,2013-04-20 05:56:00,
2013-04-20 01:00:00,37.8,30.6,30.53,West,277,0.0,0.0,75,0.00,,---,0.00,VWS V14.01,2013-04-20 06:00:00,
2013-04-20 01:01:00,37.8,30.6,30.53,West,277,0.0,0.0,75,0.00,,---,0.00,VWS V14.01,2013-04-20 06:01:00,
2013-04-20 01:06:00,37.6,30.4,30.53,West,277,0.0,0.0,75,0.00,,---,0.00,VWS V14.01,2013-04-20 06:06:00,
2013-04-20 01:10:00,37.6,30.4,30.53,West,277,0.0,0.0,75,0.00,,---,0.00,VWS V14.01,2013-04-20 06:10:00,
2013-04-20 01:11:00,37.6,30.4,30.53,West,277,0.0,0.0,75,0.00,,---,0.00,VWS V14.01,2013-04-20 06:11:00,
2013-04-20 01:16:00,37.3,30.1,30.53,West,277,0.0,0.0,75,0.00,,---,0.00,VWS V14.01,2013-04-20 06:16:00,
2013-04-20 01:20:00,37.3,30.1,30.53,West,277,0.0,0.0,75,0.00,,---,0.00,VWS V14.01,2013-04-20 06:20:00,
2013-04-20 01:21:00,37.2,30.0,30.53,West,277,0.0,0.0,75,0.00,,---,0.00,VWS V14.01,2013-04-20 06:21:00,
2013-04-20 01:26:00,37.0,29.8,30.53,West,277,0.0,0.0,75,0.00,,---,0.00,VWS V14.01,2013-04-20 06:26:00,
2013-04-20 01:30:00,37.0,29.8,30.53,West,277,0.0,0.0,75,0.00,,---,0.00,VWS V14.01,2013-04-20 06:30:00,
2013-04-20 01:31:00,36.9,29.7,30.53,West,277,0.0,0.0,75,0.00,,---,0.00,VWS V14.01,2013-04-20 06:31:00,
2013-04-20 01:36:00,36.8,29.6,30.53,West,277,0.0,0.0,75,0.00,,---,0.00,VWS V14.01,2013-04-20 06:36:00,
2013-04-20 01:40:00,36.8,30.0,30.53,West,277,0.0,0.0,76,0.00,,---,0.00,VWS V14.01,2013-04-20 06:40:00,
2013-04-20 01:41:00,36.8,30.0,30.53,West,277,0.0,0.0,76,0.00,,---,0.00,VWS V14.01,2013-04-20 06:41:00,
2013-04-20 01:46:00,36.6,29.8,30.53,West,277,0.0,0.0,76,0.00,,---,0.00,VWS V14.01,2013-04-20 06:46:00,
2013-04-20 01:50:00,36.5,29.7,30.53,West,277,0.0,0.0,76,0.00,,---,0.00,VWS V14.01,2013-04-20 06:50:00,
2013-04-20 01:51:00,36.5,29.7,30.53,West,277,0.0,0.0,76,0.00,,---,0.00,VWS V14.01,2013-04-20 06:51:00,
2013-04-20 01:56:00,36.3,29.5,30.53,West,277,0.0,0.0,76,0.00,,---,0.00,VWS V14.01,2013-04-20 06:56:00,
2013-04-20 02:00:00,36.3,29.8,30.54,West,277,0.0,0.0,77,0.00,,---,0.00,VWS V14.01,2013-04-20 07:00:00,
2013-04-20 02:01:00,36.3,29.8,30.54,West,277,0.0,0.0,77,0.00,,---,0.00,VWS V14.01,2013-04-20 07:01:00,
2013-04-20 02:06:00,36.2,29.7,30.54,West,277,0.0,0.0,77,0.00,,---,0.00,VWS V14.01,2013-04-20 07:06:00,
2013-04-20 02:10:00,36.0,29.5,30.54,West,277,0.0,0.0,77,0.00,,---,0.00,VWS V14.01,2013-04-20 07:10:00,
2013-04-20 02:11:00,36.0,29.5,30.54,West,277,0.0,0.0,77,0.00,,---,0.00,VWS V14.01,2013-04-20 07:11:00,
2013-04-20 02:16:00,35.9,29.4,30.53,West,277,0.0,0.0,77,0.00,,---,0.00,VWS V14.01,2013-04-20 07:16:00,
2013-04-20 02:20:00,35.9,29.7,30.53,West,277,0.0,0.0,78,0.00,,---,0.00,VWS V14.01,2013-04-20 07:20:00,
2013-04-20 02:21:00,35.9,29.7,30.53,West,277,0.0,0.0,78,0.00,,---,0.00,VWS V14.01,2013-04-20 07:21:00,
2013-04-20 02:26:00,35.8,29.6,30.53,West,277,0.0,0.0,78,0.00,,---,0.00,VWS V14.01,2013-04-20 07:26:00,
2013-04-20 02:30:00,35.6,29.4,30.53,West,277,0.0,0.0,78,0.00,,---,0.00,VWS V14.01,2013-04-20 07:30:00,
2013-04-20 02:31:00,35.6,29.4,30.53,West,277,0.0,0.0,78,0.00,,---,0.00,VWS V14.01,2013-04-20 07:31:00,
2013-04-20 02:36:00,35.6,29.4,30.53,West,277,0.0,0.0,78,0.00,,---,0.00,VWS V14.01,2013-04-20 07:36:00,
2013-04-20 02:40:00,35.5,29.3,30.53,West,277,0.0,0.0,78,0.00,,---,0.00,VWS V14.01,2013-04-20 07:40:00,
2013-04-20 02:41:00,35.5,29.3,30.53,West,277,0.0,0.0,78,0.00,,---,0.00,VWS V14.01,2013-04-20 07:41:00,
2013-04-20 02:46:00,35.5,29.6,30.53,West,277,0.0,0.0,79,0.00,,---,0.00,VWS V14.01,2013-04-20 07:46:00,
2013-04-20 02:50:00,35.5,29.6,30.53,West,277,0.0,0.0,79,0.00,,---,0.00,VWS V14.01,2013-04-20 07:50:00,
2013-04-20 02:51:00,35.5,29.6,30.53,West,277,0.0,0.0,79,0.00,,---,0.00,VWS V14.01,2013-04-20 07:51:00,
2013-04-20 02:56:00,35.3,29.5,30.53,West,277,0.0,0.0,79,0.00,,---,0.00,VWS V14.01,2013-04-20 07:56:00,
2013-04-20 03:00:00,35.3,29.8,30.53,West,277,0.0,0.0,80,0.00,,---,0.00,VWS V14.01,2013-04-20 08:00:00,
2013-04-20 03:01:00,35.3,29.8,30.53,West,277,0.0,0.0,80,0.00,,---,0.00,VWS V14.01,2013-04-20 08:01:00,
2013-04-20 03:06:00,35.3,29.8,30.53,West,277,0.0,0.0,80,0.00,,---,0.00,VWS V14.01,2013-04-20 08:06:00,
2013-04-20 03:10:00,35.2,29.7,30.53,West,277,0.0,0.0,80,0.00,,---,0.00,VWS V14.01,2013-04-20 08:10:00,
2013-04-20 03:11:00,35.2,29.7,30.53,West,277,0.0,0.0,80,0.00,,---,0.00,VWS V14.01,2013-04-20 08:11:00,
2013-04-20 03:16:00,35.2,29.7,30.53,West,277,0.0,0.0,80,0.00,,---,0.00,VWS V14.01,2013-04-20 08:16:00,
2013-04-20 03:20:00,35.0,29.5,30.53,West,277,0.0,0.0,80,0.00,,---,0.00,VWS V14.01,2013-04-20 08:20:00,
2013-04-20 03:21:00,35.0,29.5,30.53,West,277,0.0,0.0,80,0.00,,---,0.00,VWS V14.01,2013-04-20 08:21:00,
2013-04-20 03:26:00,35.0,29.5,30.53,West,277,0.0,0.0,80,0.00,,---,0.00,VWS V14.01,2013-04-20 08:26:00,
2013-04-20 03:30:00,34.9,29.4,30.53,West,277,0.0,0.0,80,0.00,,---,0.00,VWS V14.01,2013-04-20 08:30:00,
2013-04-20 03:31:00,34.9,29.4,30.53,West,277,0.0,0.0,80,0.00,,---,0.00,VWS V14.01,2013-04-20 08:31:00,
2013-04-20 03:36:00,34.9,29.7,30.53,West,277,0.0,0.0,81,0.00,,---,0.00,VWS V14.01,2013-04-20 08:36:00,
2013-04-20 03:40:00,34.7,29.5,30.53,West,277,0.0,0.0,81,0.00,,---,0.00,VWS V14.01,2013-04-20 08:40:00,
2013-04-20 03:41:00,34.7,29.5,30.53,West,277,0.0,0.0,81,0.00,,---,0.00,VWS V14.01,2013-04-20 08:41:00,
2013-04-20 03:46:00,34.7,29.5,30.53,West,277,0.0,0.0,81,0.00,,---,0.00,VWS V14.01,2013-04-20 08:46:00,
2013-04-20 03:50:00,34.6,29.4,30.53,West,277,0.0,0.0,81,0.00,,---,0.00,VWS V14.01,2013-04-20 08:50:00,
2013-04-20 03:51:00,34.6,29.4,30.53,West,277,0.0,0.0,81,0.00,,---,0.00,VWS V14.01,2013-04-20 08:51:00,
2013-04-20 03:56:00,34.4,29.2,30.53,West,277,0.0,0.0,81,0.00,,---,0.00,VWS V14.01,2013-04-20 08:56:00,
2013-04-20 04:00:00,34.4,29.2,30.54,West,277,0.0,0.0,81,0.00,,---,0.00,VWS V14.01,2013-04-20 09:00:00,
2013-04-20 04:01:00,34.4,29.2,30.54,West,277,0.0,0.0,81,0.00,,---,0.00,VWS V14.01,2013-04-20 09:01:00,
2013-04-20 04:06:00,34.3,29.1,30.54,West,277,0.0,0.0,81,0.00,,---,0.00,VWS V14.01,2013-04-20 09:06:00,
2013-04-20 04:10:00,34.3,29.4,30.54,West,277,0.0,0.0,82,0.00,,---,0.00,VWS V14.01,2013-04-20 09:10:00,
2013-04-20 04:11:00,34.3,29.4,30.54,West,277,0.0,0.0,82,0.00,,---,0.00,VWS V14.01,2013-04-20 09:11:00,
2013-04-20 04:16:00,34.3,29.4,30.54,West,277,0.0,0.0,82,0.00,,---,0.00,VWS V14.01,2013-04-20 09:16:00,
2013-04-20 04:20:00,34.3,29.4,30.54,West,277,0.0,0.0,82,0.00,,---,0.00,VWS V14.01,2013-04-20 09:20:00,
2013-04-20 04:21:00,34.3,29.4,30.54,West,277,0.0,0.0,82,0.00,,---,0.00,VWS V14.01,2013-04-20 09:21:00,
2013-04-20 04:26:00,34.1,29.2,30.54,West,277,0.0,0.0,82,0.00,,---,0.00,VWS V14.01,2013-04-20 09:26:00,
2013-04-20 04:30:00,34.1,29.2,30.54,West,277,0.0,0.0,82,0.00,,---,0.00,VWS V14.01,2013-04-20 09:30:00,
2013-04-20 04:31:00,34.1,29.2,30.54,West,277,0.0,0.0,82,0.00,,---,0.00,VWS V14.01,2013-04-20 09:31:00,
2013-04-20 04:36:00,34.0,29.1,30.54,West,277,0.0,0.0,82,0.00,,---,0.00,VWS V14.01,2013-04-20 09:36:00,
2013-04-20 04:40:00,34.0,29.1,30.54,West,277,0.0,0.0,82,0.00,,---,0.00,VWS V14.01,2013-04-20 09:40:00,
2013-04-20 04:41:00,34.0,29.1,30.54,West,277,0.0,0.0,82,0.00,,---,0.00,VWS V14.01,2013-04-20 09:41:00,
2013-04-20 04:46:00,33.8,28.9,30.55,West,277,0.0,0.0,82,0.00,,---,0.00,VWS V14.01,2013-04-20 09:46:00,
2013-04-20 04:50:00,33.8,28.9,30.55,West,277,0.0,0.0,82,0.00,,---,0.00,VWS V14.01,2013-04-20 09:50:00,
2013-04-20 04:51:00,33.8,29.2,30.55,West,277,0.0,0.0,83,0.00,,---,0.00,VWS V14.01,2013-04-20 09:51:00,
2013-04-20 04:56:00,33.8,29.2,30.55,West,277,0.0,0.0,83,0.00,,---,0.00,VWS V14.01,2013-04-20 09:56:00,
2013-04-20 05:00:00,33.7,29.1,30.55,West,277,0.0,0.0,83,0.00,,---,0.00,VWS V14.01,2013-04-20 10:00:00,
2013-04-20 05:01:00,33.7,29.1,30.55,West,277,0.0,0.0,83,0.00,,---,0.00,VWS V14.01,2013-04-20 10:01:00,
2013-04-20 05:06:00,33.7,29.1,30.55,West,277,0.0,0.0,83,0.00,,---,0.00,VWS V14.01,2013-04-20 10:06:00,
2013-04-20 05:10:00,33.7,29.1,30.55,West,277,0.0,0.0,83,0.00,,---,0.00,VWS V14.01,2013-04-20 10:10:00,
2013-04-20 05:11:00,33.7,29.1,30.55,West,277,0.0,0.0,83,0.00,,---,0.00,VWS V14.01,2013-04-20 10:11:00,
2013-04-20 05:16:00,33.7,29.1,30.55,West,277,0.0,0.0,83,0.00,,---,0.00,VWS V14.01,2013-04-20 10:16:00,
2013-04-20 05:20:00,33.5,28.9,30.55,West,277,0.0,0.0,83,0.00,,---,0.00,VWS V14.01,2013-04-20 10:20:00,
2013-04-20 05:21:00,33.5,28.9,30.55,West,277,0.0,0.0,83,0.00,,---,0.00,VWS V14.01,2013-04-20 10:21:00,
2013-04-20 05:26:00,33.5,28.9,30.55,West,277,0.0,0.0,83,0.00,,---,0.00,VWS V14.01,2013-04-20 10:26:00,
2013-04-20 05:30:00,33.5,29.2,30.56,West,277,0.0,0.0,84,0.00,,---,0.00,VWS V14.01,2013-04-20 10:30:00,
2013-04-20 05:31:00,33.5,29.2,30.56,West,277,0.0,0.0,84,0.00,,---,0.00,VWS V14.01,2013-04-20 10:31:00,
2013-04-20 05:36:00,33.5,29.2,30.56,West,277,0.0,0.0,84,0.00,,---,0.00,VWS V14.01,2013-04-20 10:36:00,
2013-04-20 05:40:00,33.4,29.1,30.56,West,277,0.0,0.0,84,0.00,,---,0.00,VWS V14.01,2013-04-20 10:40:00,
2013-04-20 05:41:00,33.4,29.1,30.56,West,277,0.0,0.0,84,0.00,,---,0.00,VWS V14.01,2013-04-20 10:41:00,
2013-04-20 05:46:00,33.4,29.1,30.56,West,277,0.0,0.0,84,0.00,,---,0.00,VWS V14.01,2013-04-20 10:46:00,
2013-04-20 05:50:00,33.4,29.1,30.56,West,277,0.0,0.0,84,0.00,,---,0.00,VWS V14.01,2013-04-20 10:50:00,
2013-04-20 05:51:00,33.4,29.1,30.56,West,277,0.0,0.0,84,0.00,,---,0.00,VWS V14.01,2013-04-20 10:51:00,
2013-04-20 05:56:00,33.4,29.1,30.56,West,277,0.0,0.0,84,0.00,,---,0.00,VWS V14.01,2013-04-20 10:56:00,
2013-04-20 06:00:00,33.4,29.1,30.56,West,277,0.0,0.0,84,0.00,,---,0.00,VWS V14.01,2013-04-20 11:00:00,
2013-04-20 06:01:00,33.4,29.1,30.56,West,277,0.0,0.0,84,0.00,,---,0.00,VWS V14.01,2013-04-20 11:01:00,
2013-04-20 06:06:00,33.4,29.1,30.56,West,277,0.0,0.0,84,0.00,,---,0.00,VWS V14.01,2013-04-20 11:06:00,
2013-04-20 06:10:00,33.4,29.4,30.56,West,277,0.0,0.0,85,0.00,,---,0.00,VWS V14.01,2013-04-20 11:10:00,
2013-04-20 06:11:00,33.4,29.4,30.56,West,277,0.0,0.0,85,0.00,,---,0.00,VWS V14.01,2013-04-20 11:11:00,
2013-04-20 06:16:00,33.4,29.4,30.56,West,277,0.0,0.0,85,0.00,,---,0.00,VWS V14.01,2013-04-20 11:16:00,
2013-04-20 06:20:00,33.5,29.5,30.56,West,277,0.0,1.0,85,0.00,,---,0.00,VWS V14.01,2013-04-20 11:20:00,
2013-04-20 06:21:00,33.5,29.5,30.56,West,277,0.0,0.0,85,0.00,,---,0.00,VWS V14.01,2013-04-20 11:21:00,
2013-04-20 06:26:00,33.8,30.1,30.56,West,277,0.0,0.0,86,0.00,,---,0.00,VWS V14.01,2013-04-20 11:26:00,
2013-04-20 06:30:00,34.0,30.3,30.56,West,277,0.0,0.0,86,0.00,,---,0.00,VWS V14.01,2013-04-20 11:30:00,
2013-04-20 06:31:00,34.0,30.3,30.56,West,277,0.0,0.0,86,0.00,,---,0.00,VWS V14.01,2013-04-20 11:31:00,
2013-04-20 06:36:00,34.1,30.4,30.56,West,277,0.0,0.0,86,0.00,,---,0.00,VWS V14.01,2013-04-20 11:36:00,
2013-04-20 06:40:00,34.1,30.4,30.56,West,277,0.0,0.0,86,0.00,,---,0.00,VWS V14.01,2013-04-20 11:40:00,
2013-04-20 06:41:00,34.1,30.4,30.56,West,277,0.0,0.0,86,0.00,,---,0.00,VWS V14.01,2013-04-20 11:41:00,
2013-04-20 06:46:00,34.1,30.4,30.56,West,277,0.0,0.0,86,0.00,,---,0.00,VWS V14.01,2013-04-20 11:46:00,
2013-04-20 06:50:00,34.3,30.6,30.56,West,277,0.0,0.0,86,0.00,,---,0.00,VWS V14.01,2013-04-20 11:50:00,
2013-04-20 06:51:00,34.3,30.6,30.56,West,277,0.0,0.0,86,0.00,,---,0.00,VWS V14.01,2013-04-20 11:51:00,
2013-04-20 06:56:00,34.3,30.6,30.56,West,277,0.0,0.0,86,0.00,,---,0.00,VWS V14.01,2013-04-20 11:56:00,
2013-04-20 07:00:00,34.3,30.6,30.57,West,277,0.0,0.0,86,0.00,,---,0.00,VWS V14.01,2013-04-20 12:00:00,
2013-04-20 07:01:00,34.3,30.6,30.57,West,277,0.0,0.0,86,0.00,,---,0.00,VWS V14.01,2013-04-20 12:01:00,
2013-04-20 07:06:00,34.4,30.6,30.57,West,277,0.0,0.0,86,0.00,,---,0.00,VWS V14.01,2013-04-20 12:06:00,
2013-04-20 07:10:00,34.4,30.9,30.57,West,277,0.0,0.0,87,0.00,,---,0.00,VWS V14.01,2013-04-20 12:10:00,
2013-04-20 07:11:00,34.4,30.9,30.57,West,277,0.0,0.0,87,0.00,,---,0.00,VWS V14.01,2013-04-20 12:11:00,
2013-04-20 07:16:00,34.7,31.2,30.58,West,277,0.0,0.0,87,0.00,,---,0.00,VWS V14.01,2013-04-20 12:16:00,
2013-04-20 07:20:00,34.9,31.4,30.58,West,277,0.0,0.0,87,0.00,,---,0.00,VWS V14.01,2013-04-20 12:20:00,
2013-04-20 07:21:00,34.9,31.4,30.58,West,277,0.0,0.0,87,0.00,,---,0.00,VWS V14.01,2013-04-20 12:21:00,
2013-04-20 07:26:00,35.2,31.7,30.58,West,277,0.0,0.0,87,0.00,,---,0.00,VWS V14.01,2013-04-20 12:26:00,
2013-04-20 07:30:00,35.6,32.4,30.58,West,277,0.0,0.0,88,0.00,,---,0.00,VWS V14.01,2013-04-20 12:30:00,
2013-04-20 07:31:00,35.6,32.1,30.58,West,277,0.0,0.0,87,0.00,,---,0.00,VWS V14.01,2013-04-20 12:31:00,
2013-04-20 07:36:00,35.9,32.7,30.58,West,277,0.0,0.0,88,0.00,,---,0.00,VWS V14.01,2013-04-20 12:36:00,
2013-04-20 07:40:00,36.3,33.1,30.58,West,277,0.0,0.0,88,0.00,,---,0.00,VWS V14.01,2013-04-20 12:40:00,
2013-04-20 07:41:00,36.3,33.1,30.58,West,277,0.0,0.0,88,0.00,,---,0.00,VWS V14.01,2013-04-20 12:41:00,
2013-04-20 07:46:00,36.8,33.6,30.58,West,277,0.0,0.0,88,0.00,,---,0.00,VWS V14.01,2013-04-20 12:46:00,
2013-04-20 07:50:00,37.3,34.4,30.58,West,277,0.0,0.0,89,0.00,,---,0.00,VWS V14.01,2013-04-20 12:50:00,
2013-04-20 07:51:00,37.3,34.4,30.58,West,277,0.0,0.0,89,0.00,,---,0.00,VWS V14.01,2013-04-20 12:51:00,
2013-04-20 07:56:00,37.9,35.0,30.58,West,277,0.0,0.0,89,0.00,,---,0.00,VWS V14.01,2013-04-20 12:56:00,
2013-04-20 08:00:00,38.5,35.5,30.59,West,277,0.0,0.0,89,0.00,,---,0.00,VWS V14.01,2013-04-20 13:00:00,
2013-04-20 08:01:00,38.5,35.5,30.59,West,277,0.0,0.0,89,0.00,,---,0.00,VWS V14.01,2013-04-20 13:01:00,
2013-04-20 08:06:00,39.1,36.1,30.59,West,277,0.0,0.0,89,0.00,,---,0.00,VWS V14.01,2013-04-20 13:06:00,
2013-04-20 08:10:00,39.6,36.6,30.59,West,277,0.0,0.0,89,0.00,,---,0.00,VWS V14.01,2013-04-20 13:10:00,
2013-04-20 08:11:00,39.6,36.6,30.59,West,277,0.0,0.0,89,0.00,,---,0.00,VWS V14.01,2013-04-20 13:11:00,
2013-04-20 08:16:00,40.3,37.3,30.60,West,277,0.0,0.0,89,0.00,,---,0.00,VWS V14.01,2013-04-20 13:16:00,
2013-04-20 08:20:00,41.1,38.1,30.60,West,277,1.0,3.0,89,0.00,,---,0.00,VWS V14.01,2013-04-20 13:20:00,
2013-04-20 08:21:00,41.1,38.1,30.60,West,277,1.0,1.0,89,0.00,,---,0.00,VWS V14.01,2013-04-20 13:21:00,
2013-04-20 08:26:00,41.8,38.5,30.60,West,277,0.0,2.0,88,0.00,,---,0.00,VWS V14.01,2013-04-20 13:26:00,
2013-04-20 08:30:00,42.2,38.9,30.60,West,277,0.0,2.0,88,0.00,,---,0.00,VWS V14.01,2013-04-20 13:30:00,
2013-04-20 08:31:00,42.3,39.0,30.60,West,277,0.0,0.0,88,0.00,,---,0.00,VWS V14.01,2013-04-20 13:31:00,
2013-04-20 08:36:00,42.9,39.6,30.60,West,277,0.0,0.0,88,0.00,,---,0.00,VWS V14.01,2013-04-20 13:36:00,
2013-04-20 08:40:00,43.6,40.3,30.60,West,277,0.0,2.0,88,0.00,,---,0.00,VWS V14.01,2013-04-20 13:40:00,
2013-04-20 08:41:00,43.6,40.3,30.60,West,277,0.0,0.0,88,0.00,,---,0.00,VWS V14.01,2013-04-20 13:41:00,
2013-04-20 08:46:00,44.5,40.9,30.60,West,277,0.0,1.0,87,0.00,,---,0.00,VWS V14.01,2013-04-20 13:46:00,
2013-04-20 08:50:00,45.1,41.2,30.60,West,277,3.0,3.0,86,0.00,,---,0.00,VWS V14.01,2013-04-20 13:50:00,
2013-04-20 08:51:00,45.1,41.2,30.60,West,277,0.0,3.0,86,0.00,,---,0.00,VWS V14.01,2013-04-20 13:51:00,
2013-04-20 08:56:00,45.8,41.2,30.60,West,277,2.0,3.0,84,0.00,,---,0.00,VWS V14.01,2013-04-20 13:56:00,
2013-04-20 09:00:00,46.4,40.9,30.60,West,277,2.0,3.0,81,0.00,,---,0.00,VWS V14.01,2013-04-20 14:00:00,
2013-04-20 09:01:00,46.4,40.9,30.60,West,277,3.0,4.0,81,0.00,,---,0.00,VWS V14.01,2013-04-20 14:01:00,
2013-04-20 09:06:00,47.1,40.3,30.60,SW,224,4.0,6.0,77,0.00,,---,0.00,VWS V14.01,2013-04-20 14:06:00,
2013-04-20 09:10:00,48.2,39.6,30.60,SW,223,3.0,6.0,72,0.00,,---,0.00,VWS V14.01,2013-04-20 14:10:00,
2013-04-20 09:11:00,48.5,39.5,30.60,SW,223,3.0,3.0,71,0.00,,---,0.00,VWS V14.01,2013-04-20 14:11:00,
2013-04-20 09:16:00,51.4,38.4,30.61,SW,223,2.0,3.0,61,0.00,,---,0.00,VWS V14.01,2013-04-20 14:16:00,
2013-04-20 09:20:00,52.2,35.6,30.61,SW,223,1.0,5.0,53,0.00,,---,0.00,VWS V14.01,2013-04-20 14:20:00,
2013-04-20 09:21:00,52.3,35.7,30.61,SW,223,3.0,3.0,53,0.00,,---,0.00,VWS V14.01,2013-04-20 14:21:00,
2013-04-20 09:26:00,52.9,35.8,30.61,SW,221,2.0,6.0,52,0.00,,---,0.00,VWS V14.01,2013-04-20 14:26:00,
2013-04-20 09:30:00,53.1,35.5,30.60,SW,220,5.0,6.0,51,0.00,,---,0.00,VWS V14.01,2013-04-20 14:30:00,
2013-04-20 09:31:00,53.3,35.7,30.60,SSW,196,4.0,5.0,51,0.00,,---,0.00,VWS V14.01,2013-04-20 14:31:00,
2013-04-20 09:36:00,53.9,36.2,30.60,South,186,0.0,6.0,51,0.00,,---,0.00,VWS V14.01,2013-04-20 14:36:00,
2013-04-20 09:40:00,54.5,35.8,30.60,SSW,192,1.0,6.0,49,0.00,,---,0.00,VWS V14.01,2013-04-20 14:40:00,
2013-04-20 09:41:00,54.7,36.9,30.60,SSW,192,3.0,3.0,51,0.00,,---,0.00,VWS V14.01,2013-04-20 14:41:00,
2013-04-20 09:46:00,55.0,34.6,30.60,SSW,206,2.0,5.0,46,0.00,,---,0.00,VWS V14.01,2013-04-20 14:46:00,
2013-04-20 09:50:00,55.1,34.7,30.60,SSW,209,4.0,6.0,46,0.00,,---,0.00,VWS V14.01,2013-04-20 14:50:00,
2013-04-20 09:51:00,55.1,34.7,30.60,SSW,209,1.0,4.0,46,0.00,,---,0.00,VWS V14.01,2013-04-20 14:51:00,
2013-04-20 09:55:00,55.3,33.2,30.60,WSW,248,3.0,7.0,43,0.00,,---,0.00,VWS V14.01,2013-04-20 14:55:00,
2013-04-20 10:00:00,55.3,33.8,30.60,SW,225,3.0,4.0,44,0.00,,---,0.00,VWS V14.01,2013-04-20 15:00:00,
2013-04-20 10:05:00,55.9,33.8,30.60,SW,233,0.0,10.0,43,0.00,,---,0.00,VWS V14.01,2013-04-20 15:05:00,
2013-04-20 10:10:00,56.5,32.5,30.60,SW,232,3.0,10.0,40,0.00,,---,0.00,VWS V14.01,2013-04-20 15:10:00,
2013-04-20 10:11:00,56.5,32.5,30.60,SSW,203,1.0,5.0,40,0.00,,---,0.00,VWS V14.01,2013-04-20 15:11:00,
2013-04-20 10:16:00,56.9,33.5,30.61,WSW,237,4.0,11.0,41,0.00,,---,0.00,VWS V14.01,2013-04-20 15:16:00,
2013-04-20 10:20:00,57.3,31.9,30.61,SW,217,5.0,11.0,38,0.00,,---,0.00,VWS V14.01,2013-04-20 15:20:00,
2013-04-20 10:21:00,57.5,32.8,30.61,SW,217,3.0,5.0,39,0.00,,---,0.00,VWS V14.01,2013-04-20 15:21:00,
2013-04-20 10:26:00,57.6,31.5,30.61,West,261,4.0,11.0,37,0.00,,---,0.00,VWS V14.01,2013-04-20 15:26:00,
2013-04-20 10:30:00,57.5,31.5,30.62,SW,236,6.0,11.0,37,0.00,,---,0.00,VWS V14.01,2013-04-20 15:30:00,
2013-04-20 10:31:00,57.5,31.5,30.62,WSW,255,4.0,6.0,37,0.00,,---,0.00,VWS V14.01,2013-04-20 15:31:00,
2013-04-20 10:36:00,57.6,32.2,30.62,WSW,238,6.0,8.0,38,0.00,,---,0.00,VWS V14.01,2013-04-20 15:36:00,
2013-04-20 10:40:00,58.0,33.8,30.62,WSW,258,10.0,10.0,40,0.00,,---,0.00,VWS V14.01,2013-04-20 15:40:00,
2013-04-20 10:41:00,58.1,33.9,30.62,West,262,6.0,10.0,40,0.00,,---,0.00,VWS V14.01,2013-04-20 15:41:00,
2013-04-20 10:45:00,58.0,31.9,30.62,SSW,211,3.0,10.0,37,0.00,,---,0.00,VWS V14.01,2013-04-20 15:45:00,
2013-04-20 10:50:00,58.3,32.8,30.62,SW,232,2.0,3.0,38,0.00,,---,0.00,VWS V14.01,2013-04-20 15:50:00,
2013-04-20 10:55:00,59.0,34.7,30.62,West,273,5.0,8.0,40,0.00,,---,0.00,VWS V14.01,2013-04-20 15:55:00,
2013-04-20 11:00:00,59.3,33.0,30.61,SSW,211,2.0,2.0,37,0.00,,---,0.00,VWS V14.01,2013-04-20 16:00:00,
2013-04-20 11:05:00,59.8,32.8,30.61,WSW,244,5.0,10.0,36,0.00,,---,0.00,VWS V14.01,2013-04-20 16:05:00,
2013-04-20 11:10:00,59.6,32.6,30.61,SW,219,6.0,6.0,36,0.00,,---,0.00,VWS V14.01,2013-04-20 16:10:00,
2013-04-20 11:15:00,59.8,32.8,30.60,South,186,3.0,10.0,36,0.00,,---,0.00,VWS V14.01,2013-04-20 16:15:00,
2013-04-20 11:20:00,60.7,34.3,30.60,WSW,244,3.0,5.0,37,0.00,,---,0.00,VWS V14.01,2013-04-20 16:20:00,
2013-04-20 11:25:00,60.5,32.0,30.60,WSW,257,4.0,7.0,34,0.00,,---,0.00,VWS V14.01,2013-04-20 16:25:00,
2013-04-20 11:30:00,61.2,34.7,30.60,South,190,3.0,4.0,37,0.00,,---,0.00,VWS V14.01,2013-04-20 16:30:00,
2013-04-20 11:35:00,61.3,33.4,30.60,WSW,244,6.0,9.0,35,0.00,,---,0.00,VWS V14.01,2013-04-20 16:35:00,
2013-04-20 11:40:00,61.3,31.2,30.60,WSW,248,5.0,5.0,32,0.00,,---,0.00,VWS V14.01,2013-04-20 16:40:00,
2013-04-20 11:45:00,61.3,31.2,30.60,WNW,283,2.0,9.0,32,0.00,,---,0.00,VWS V14.01,2013-04-20 16:45:00,
2013-04-20 11:50:00,61.2,31.1,30.60,NW,305,3.0,3.0,32,0.00,,---,0.00,VWS V14.01,2013-04-20 16:50:00,
2013-04-20 11:55:00,61.6,33.7,30.60,WNW,292,2.0,8.0,35,0.00,,---,0.00,VWS V14.01,2013-04-20 16:55:00,
2013-04-20 12:00:00,62.6,32.3,30.59,West,267,7.0,9.0,32,0.00,,---,0.00,VWS V14.01,2013-04-20 17:00:00,
2013-04-20 12:05:00,62.6,33.9,30.59,West,273,7.0,7.0,34,0.00,,---,0.00,VWS V14.01,2013-04-20 17:05:00,
2013-04-20 12:10:00,63.1,32.8,30.59,WSW,253,4.0,4.0,32,0.00,,---,0.00,VWS V14.01,2013-04-20 17:10:00,
2013-04-20 12:15:00,63.2,32.1,30.58,West,259,4.0,7.0,31,0.00,,---,0.00,VWS V14.01,2013-04-20 17:15:00,
2013-04-20 12:20:00,63.1,32.0,30.58,SSW,193,4.0,7.0,31,0.00,,---,0.00,VWS V14.01,2013-04-20 17:20:00,
2013-04-20 12:25:00,62.7,32.4,30.58,SW,232,2.0,9.0,32,0.00,,---,0.00,VWS V14.01,2013-04-20 17:25:00,
2013-04-20 12:30:00,63.4,34.6,30.58,SW,219,0.0,0.0,34,0.00,,---,0.00,VWS V14.01,2013-04-20 17:30:00,
2013-04-20 12:35:00,63.5,30.7,30.58,West,262,0.0,6.0,29,0.00,,---,0.00,VWS V14.01,2013-04-20 17:35:00,
2013-04-20 12:40:00,63.9,33.5,30.58,West,275,6.0,6.0,32,0.00,,---,0.00,VWS V14.01,2013-04-20 17:40:00,
2013-04-20 12:45:00,64.0,33.6,30.57,WSW,249,6.0,10.0,32,0.00,,---,0.00,VWS V14.01,2013-04-20 17:45:00,
2013-04-20 12:50:00,64.2,34.5,30.57,SW,230,6.0,9.0,33,0.00,,---,0.00,VWS V14.01,2013-04-20 17:50:00,
2013-04-20 12:55:00,64.3,31.4,30.57,WNW,289,1.0,9.0,29,0.00,,---,0.00,VWS V14.01,2013-04-20 17:55:00,
2013-04-20 13:00:00,64.7,31.7,30.56,SW,215,6.0,10.0,29,0.00,,---,0.00,VWS V14.01,2013-04-20 18:00:00,
2013-04-20 13:05:00,65.2,33.0,30.56,WSW,246,4.0,10.0,30,0.00,,---,0.00,VWS V14.01,2013-04-20 18:05:00,
2013-04-20 13:10:00,64.7,31.7,30.56,SW,231,2.0,2.0,29,0.00,,---,0.00,VWS V14.01,2013-04-20 18:10:00,
2013-04-20 13:15:00,64.8,31.8,30.57,WSW,253,3.0,6.0,29,0.00,,---,0.00,VWS V14.01,2013-04-20 18:15:00,
2013-04-20 13:20:00,64.8,33.5,30.57,SSW,198,1.0,1.0,31,0.00,,---,0.00,VWS V14.01,2013-04-20 18:20:00,
2013-04-20 13:25:00,64.8,32.7,30.57,WNW,290,2.0,5.0,30,0.00,,---,0.00,VWS V14.01,2013-04-20 18:25:00,
2013-04-20 13:30:00,65.5,32.4,30.56,West,265,2.0,3.0,29,0.00,,---,0.00,VWS V14.01,2013-04-20 18:30:00,
2013-04-20 13:35:00,66.1,32.1,30.56,SW,217,4.0,14.0,28,0.00,,---,0.00,VWS V14.01,2013-04-20 18:35:00,
2013-04-20 13:40:00,66.0,32.0,30.56,West,279,4.0,4.0,28,0.00,,---,0.00,VWS V14.01,2013-04-20 18:40:00,
2013-04-20 13:45:00,65.5,31.6,30.55,SW,227,5.0,7.0,28,0.00,,---,0.00,VWS V14.01,2013-04-20 18:45:00,
2013-04-20 13:50:00,67.3,33.1,30.55,SW,214,4.0,4.0,28,0.00,,---,0.00,VWS V14.01,2013-04-20 18:50:00,
2013-04-20 13:55:00,67.1,32.9,30.55,SSW,204,9.0,12.0,28,0.00,,---,0.00,VWS V14.01,2013-04-20 18:55:00,
2013-04-20 14:00:00,66.6,31.6,30.55,SW,228,6.0,8.0,27,0.00,,---,0.00,VWS V14.01,2013-04-20 19:00:00,
2013-04-20 14:05:00,68.1,33.8,30.55,SSW,207,2.0,12.0,28,0.00,,---,0.00,VWS V14.01,2013-04-20 19:05:00,
2013-04-20 14:10:00,67.3,32.2,30.55,West,265,2.0,2.0,27,0.00,,---,0.00,VWS V14.01,2013-04-20 19:10:00,
2013-04-20 14:15:00,68.4,34.0,30.54,WSW,258,6.0,10.0,28,0.00,,---,0.00,VWS V14.01,2013-04-20 19:15:00,
2013-04-20 14:20:00,68.1,32.0,30.54,SW,215,6.0,6.0,26,0.00,,---,0.00,VWS V14.01,2013-04-20 19:20:00,
2013-04-20 14:25:00,68.8,31.6,30.54,SSW,202,7.0,12.0,25,0.00,,---,0.00,VWS V14.01,2013-04-20 19:25:00,
2013-04-20 14:30:00,69.1,30.8,30.54,SW,234,6.0,10.0,24,0.00,,---,0.00,VWS V14.01,2013-04-20 19:30:00,
2013-04-20 14:35:00,68.4,25.8,30.54,SSW,213,5.0,10.0,20,0.00,,---,0.00,VWS V14.01,2013-04-20 19:35:00,
2013-04-20 14:40:00,67.6,29.6,30.54,SSW,213,8.0,8.0,24,0.00,,---,0.00,VWS V14.01,2013-04-20 19:40:00,
2013-04-20 14:45:00,67.9,29.8,30.53,WSW,248,7.0,11.0,24,0.00,,---,0.00,VWS V14.01,2013-04-20 19:45:00,
2013-04-20 14:50:00,67.9,28.8,30.53,WSW,254,9.0,10.0,23,0.00,,---,0.00,VWS V14.01,2013-04-20 19:50:00,
2013-04-20 14:55:00,68.4,29.2,30.53,SW,226,5.0,13.0,23,0.00,,---,0.00,VWS V14.01,2013-04-20 19:55:00,
2013-04-20 15:00:00,69.1,29.8,30.52,SW,227,5.0,5.0,23,0.00,,---,0.00,VWS V14.01,2013-04-20 20:00:00,
2013-04-20 15:05:00,69.4,30.0,30.52,SW,226,5.0,14.0,23,0.00,,---,0.00,VWS V14.01,2013-04-20 20:05:00,
2013-04-20 15:10:00,68.8,28.4,30.52,SW,236,9.0,9.0,22,0.00,,---,0.00,VWS V14.01,2013-04-20 20:10:00,
2013-04-20 15:15:00,68.4,30.2,30.52,SW,223,4.0,12.0,24,0.00,,---,0.00,VWS V14.01,2013-04-20 20:15:00,
2013-04-20 15:20:00,67.8,28.7,30.52,WSW,249,5.0,12.0,23,0.00,,---,0.00,VWS V14.01,2013-04-20 20:20:00,
2013-04-20 15:25:00,67.4,28.4,30.52,SW,234,7.0,9.0,23,0.00,,---,0.00,VWS V14.01,2013-04-20 20:25:00,
2013-04-20 15:30:00,67.8,26.5,30.51,WSW,237,6.0,11.0,21,0.00,,---,0.00,VWS V14.01,2013-04-20 20:30:00,
2013-04-20 15:35:00,67.4,28.4,30.51,WSW,244,10.0,11.0,23,0.00,,---,0.00,VWS V14.01,2013-04-20 20:35:00,
2013-04-20 15:40:00,67.1,30.1,30.51,SSW,209,4.0,11.0,25,0.00,,---,0.00,VWS V14.01,2013-04-20 20:40:00,
2013-04-20 15:45:00,66.9,29.0,30.51,WSW,242,5.0,7.0,24,0.00,,---,0.00,VWS V14.01,2013-04-20 20:45:00,
2013-04-20 15:50:00,66.6,28.7,30.51,WSW,240,1.0,7.0,24,0.00,,---,0.00,VWS V14.01,2013-04-20 20:50:00,
2013-04-20 15:55:00,66.9,29.0,30.51,WSW,245,7.0,7.0,24,0.00,,---,0.00,VWS V14.01,2013-04-20 20:55:00,
2013-04-20 16:00:00,66.8,28.9,30.50,SW,234,6.0,8.0,24,0.00,,---,0.00,VWS V14.01,2013-04-20 21:00:00,
2013-04-20 16:05:00,66.8,28.9,30.50,SW,229,6.0,9.0,24,0.00,,---,0.00,VWS V14.01,2013-04-20 21:05:00,
2013-04-20 16:10:00,66.9,30.0,30.50,SW,230,3.0,9.0,25,0.00,,---,0.00,VWS V14.01,2013-04-20 21:10:00,
2013-04-20 16:15:00,67.4,30.4,30.50,SW,223,3.0,11.0,25,0.00,,---,0.00,VWS V14.01,2013-04-20 21:15:00,
2013-04-20 16:20:00,67.4,32.3,30.50,SW,214,10.0,11.0,27,0.00,,---,0.00,VWS V14.01,2013-04-20 21:20:00,
2013-04-20 16:25:00,66.8,31.8,30.50,South,179,4.0,14.0,27,0.00,,---,0.00,VWS V14.01,2013-04-20 21:25:00,
2013-04-20 16:30:00,66.1,32.1,30.50,SSW,207,9.0,14.0,28,0.00,,---,0.00,VWS V14.01,2013-04-20 21:30:00,
2013-04-20 16:35:00,65.6,31.6,30.50,SW,215,4.0,14.0,28,0.00,,---,0.00,VWS V14.01,2013-04-20 21:35:00,
2013-04-20 16:40:00,65.5,31.6,30.50,SSW,209,6.0,14.0,28,0.00,,---,0.00,VWS V14.01,2013-04-20 21:40:00,
2013-04-20 16:45:00,65.5,31.6,30.50,SW,219,6.0,10.0,28,0.00,,---,0.00,VWS V14.01,2013-04-20 21:45:00,
2013-04-20 16:50:00,65.6,30.8,30.50,SW,226,6.0,13.0,27,0.00,,---,0.00,VWS V14.01,2013-04-20 21:50:00,
2013-04-20 16:55:00,65.5,30.7,30.50,SW,236,5.0,13.0,27,0.00,,---,0.00,VWS V14.01,2013-04-20 21:55:00,
2013-04-20 17:00:00,65.6,30.8,30.50,SW,218,5.0,13.0,27,0.00,,---,0.00,VWS V14.01,2013-04-20 22:00:00,
2013-04-20 17:05:00,65.5,31.6,30.50,SSW,200,5.0,11.0,28,0.00,,---,0.00,VWS V14.01,2013-04-20 22:05:00,
2013-04-20 17:10:00,65.3,31.4,30.50,SSW,211,4.0,12.0,28,0.00,,---,0.00,VWS V14.01,2013-04-20 22:10:00,
2013-04-20 17:15:00,65.2,31.3,30.50,SW,218,4.0,11.0,28,0.00,,---,0.00,VWS V14.01,2013-04-20 22:15:00,
2013-04-20 17:20:00,65.0,31.1,30.50,SSE,155,6.0,11.0,28,0.00,,---,0.00,VWS V14.01,2013-04-20 22:20:00,
2013-04-20 17:25:00,65.0,31.1,30.50,SSW,208,6.0,7.0,28,0.00,,---,0.00,VWS V14.01,2013-04-20 22:25:00,
2013-04-20 17:30:00,65.0,31.1,30.50,SW,216,4.0,11.0,28,0.00,,---,0.00,VWS V14.01,2013-04-20 22:30:00,
2013-04-20 17:35:00,64.8,30.1,30.50,SW,221,5.0,7.0,27,0.00,,---,0.00,VWS V14.01,2013-04-20 22:35:00,
2013-04-20 17:40:00,64.8,30.1,30.50,SSW,202,4.0,10.0,27,0.00,,---,0.00,VWS V14.01,2013-04-20 22:40:00,
2013-04-20 17:45:00,64.8,31.0,30.50,SSW,201,4.0,10.0,28,0.00,,---,0.00,VWS V14.01,2013-04-20 22:45:00,
2013-04-20 17:50:00,65.5,30.7,30.50,SSW,193,5.0,10.0,27,0.00,,---,0.00,VWS V14.01,2013-04-20 22:50:00,
2013-04-20 17:55:00,66.1,31.2,30.50,SSW,193,3.0,7.0,27,0.00,,---,0.00,VWS V14.01,2013-04-20 22:55:00,
2013-04-20 18:00:00,67.4,32.3,30.49,South,178,4.0,10.0,27,0.00,,---,0.00,VWS V14.01,2013-04-20 23:00:00,
2013-04-20 18:05:00,68.1,32.0,30.49,SSW,200,3.0,7.0,26,0.00,,---,0.00,VWS V14.01,2013-04-20 23:05:00,
2013-04-20 18:10:00,67.3,31.3,30.49,South,181,4.0,10.0,26,0.00,,---,0.00,VWS V14.01,2013-04-20 23:10:00,
2013-04-20 18:15:00,67.4,31.4,30.49,South,190,5.0,6.0,26,0.00,,---,0.00,VWS V14.01,2013-04-20 23:15:00,
2013-04-20 18:20:00,66.4,30.5,30.49,SSW,203,10.0,10.0,26,0.00,,---,0.00,VWS V14.01,2013-04-20 23:20:00,
2013-04-20 18:25:00,66.1,32.1,30.49,South,190,2.0,10.0,28,0.00,,---,0.00,VWS V14.01,2013-04-20 23:25:00,
2013-04-20 18:30:00,66.9,30.9,30.49,SSW,207,1.0,10.0,26,0.00,,---,0.00,VWS V14.01,2013-04-20 23:30:00,
2013-04-20 18:35:00,66.4,32.3,30.49,SSW,199,3.0,9.0,28,0.00,,---,0.00,VWS V14.01,2013-04-20 23:35:00,
2013-04-20 18:40:00,65.5,30.7,30.49,SSW,204,4.0,9.0,27,0.00,,---,0.00,VWS V14.01,2013-04-20 23:40:00,
2013-04-20 18:45:00,65.5,30.7,30.50,SSW,204,3.0,8.0,27,0.00,,---,0.00,VWS V14.01,2013-04-20 23:45:00,
2013-04-20 18:50:00,65.6,32.5,30.50,SSE,148,6.0,8.0,29,0.00,,---,0.00,VWS V14.01,2013-04-20 23:50:00,
2013-04-20 18:55:00,65.6,31.6,30.50,South,186,4.0,11.0,28,0.00,,---,0.00,VWS V14.01,2013-04-20 23:55:00,
2013-04-20 19:00:00,65.5,31.6,30.50,SE,143,6.0,11.0,28,0.00,,---,0.00,VWS V14.01,2013-04-21 00:00:00,
2013-04-20 19:05:00,65.2,30.4,30.50,South,173,4.0,12.0,27,0.00,,---,0.00,VWS V14.01,2013-04-21 00:05:00,
2013-04-20 19:10:00,64.7,30.0,30.50,South,179,4.0,12.0,27,0.00,,---,0.00,VWS V14.01,2013-04-21 00:10:00,
2013-04-20 19:15:00,64.3,29.6,30.50,South,170,4.0,12.0,27,0.00,,---,0.00,VWS V14.01,2013-04-21 00:15:00,
2013-04-20 19:20:00,64.0,31.1,30.50,South,170,0.0,12.0,29,0.00,,---,0.00,VWS V14.01,2013-04-21 00:20:00,
2013-04-20 19:25:00,63.7,30.9,30.50,SE,132,3.0,9.0,29,0.00,,---,0.00,VWS V14.01,2013-04-21 00:25:00,
2013-04-20 19:30:00,63.5,30.7,30.50,South,182,4.0,9.0,29,0.00,,---,0.00,VWS V14.01,2013-04-21 00:30:00,
2013-04-20 19:35:00,63.4,30.6,30.50,SE,146,6.0,10.0,29,0.00,,---,0.00,VWS V14.01,2013-04-21 00:35:00,
2013-04-20 19:40:00,63.2,31.3,30.50,South,177,3.0,10.0,30,0.00,,---,0.00,VWS V14.01,2013-04-21 00:40:00,
2013-04-20 19:45:00,63.1,31.2,30.50,South,178,0.0,4.0,30,0.00,,---,0.00,VWS V14.01,2013-04-21 00:45:00,
2013-04-20 19:50:00,62.9,31.8,30.50,South,178,3.0,4.0,31,0.00,,---,0.00,VWS V14.01,2013-04-21 00:50:00,
2013-04-20 19:55:00,62.4,32.2,30.50,South,177,2.0,4.0,32,0.00,,---,0.00,VWS V14.01,2013-04-21 00:55:00,
2013-04-20 20:00:00,62.1,32.7,30.51,South,177,1.0,4.0,33,0.00,,---,0.00,VWS V14.01,2013-04-21 01:00:00,
2013-04-20 20:05:00,61.8,33.2,30.51,South,177,0.0,2.0,34,0.00,,---,0.00,VWS V14.01,2013-04-21 01:05:00,
2013-04-20 20:10:00,61.5,33.6,30.51,South,178,0.0,2.0,35,0.00,,---,0.00,VWS V14.01,2013-04-21 01:10:00,
2013-04-20 20:15:00,61.0,33.9,30.50,South,177,0.0,2.0,36,0.00,,---,0.00,VWS V14.01,2013-04-21 01:15:00,
2013-04-20 20:20:00,60.7,34.3,30.50,South,177,0.0,2.0,37,0.00,,---,0.00,VWS V14.01,2013-04-21 01:20:00,
2013-04-20 20:25:00,60.4,34.0,30.50,South,178,0.0,0.0,37,0.00,,---,0.00,VWS V14.01,2013-04-21 01:25:00,
2013-04-20 20:30:00,60.1,33.8,30.51,South,177,0.0,0.0,37,0.00,,---,0.00,VWS V14.01,2013-04-21 01:30:00,
2013-04-20 20:35:00,59.6,34.6,30.51,South,178,0.0,0.0,39,0.00,,---,0.00,VWS V14.01,2013-04-21 01:35:00,
2013-04-20 20:40:00,59.3,34.4,30.51,South,177,2.0,3.0,39,0.00,,---,0.00,VWS V14.01,2013-04-21 01:40:00,
2013-04-20 20:45:00,59.0,35.3,30.53,SSE,157,4.0,5.0,41,0.00,,---,0.00,VWS V14.01,2013-04-21 01:45:00,
2013-04-20 20:50:00,58.7,35.7,30.53,SSE,156,2.0,5.0,42,0.00,,---,0.00,VWS V14.01,2013-04-21 01:50:00,
2013-04-20 20:55:00,58.6,35.6,30.53,SSE,156,1.0,3.0,42,0.00,,---,0.00,VWS V14.01,2013-04-21 01:55:00,
2013-04-20 21:00:00,58.4,35.4,30.54,SSE,156,0.0,3.0,42,0.00,,---,0.00,VWS V14.01,2013-04-21 02:00:00,
2013-04-20 21:05:00,58.3,35.9,30.54,SSE,156,0.0,2.0,43,0.00,,---,0.00,VWS V14.01,2013-04-21 02:05:00,
2013-04-20 21:10:00,58.1,35.7,30.54,SSE,156,0.0,2.0,43,0.00,,---,0.00,VWS V14.01,2013-04-21 02:10:00,
2013-04-20 21:15:00,57.8,36.0,30.53,SSE,156,0.0,0.0,44,0.00,,---,0.00,VWS V14.01,2013-04-21 02:15:00,
2013-04-20 21:20:00,57.6,36.4,30.53,SSE,156,0.0,5.0,45,0.00,,---,0.00,VWS V14.01,2013-04-21 02:20:00,
2013-04-20 21:25:00,57.3,36.2,30.53,SSE,156,0.0,4.0,45,0.00,,---,0.00,VWS V14.01,2013-04-21 02:25:00,
2013-04-20 21:30:00,57.0,35.9,30.53,SSE,156,0.0,4.0,45,0.00,,---,0.00,VWS V14.01,2013-04-21 02:30:00,
2013-04-20 21:35:00,56.9,36.3,30.53,SSE,156,2.0,3.0,46,0.00,,---,0.00,VWS V14.01,2013-04-21 02:35:00,
2013-04-20 21:40:00,56.7,36.2,30.53,SSE,155,2.0,5.0,46,0.00,,---,0.00,VWS V14.01,2013-04-21 02:40:00,
2013-04-20 21:45:00,56.7,36.2,30.54,SSE,155,1.0,4.0,46,0.00,,---,0.00,VWS V14.01,2013-04-21 02:45:00,
2013-04-20 21:50:00,56.6,36.1,30.54,SSE,153,1.0,6.0,46,0.00,,---,0.00,VWS V14.01,2013-04-21 02:50:00,
2013-04-20 21:55:00,56.6,36.1,30.54,SE,146,4.0,6.0,46,0.00,,---,0.00,VWS V14.01,2013-04-21 02:55:00,
2013-04-20 22:00:00,56.5,36.0,30.55,SSE,150,1.0,6.0,46,0.00,,---,0.00,VWS V14.01,2013-04-21 03:00:00,
2013-04-20 22:05:00,56.5,36.0,30.55,SSE,150,1.0,4.0,46,0.00,,---,0.00,VWS V14.01,2013-04-21 03:05:00,
2013-04-20 22:10:00,56.3,36.3,30.55,SSE,150,0.0,4.0,47,0.00,,---,0.00,VWS V14.01,2013-04-21 03:10:00,
2013-04-20 22:15:00,56.3,36.3,30.55,SSE,150,2.0,3.0,47,0.00,,---,0.00,VWS V14.01,2013-04-21 03:15:00,
2013-04-20 22:20:00,56.2,36.3,30.55,South,169,3.0,4.0,47,0.00,,---,0.00,VWS V14.01,2013-04-21 03:20:00,
2013-04-20 22:25:00,56.0,36.6,30.55,South,169,1.0,3.0,48,0.00,,---,0.00,VWS V14.01,2013-04-21 03:25:00,
2013-04-20 22:30:00,56.0,36.6,30.55,South,169,4.0,5.0,48,0.00,,---,0.00,VWS V14.01,2013-04-21 03:30:00,
2013-04-20 22:35:00,55.9,36.5,30.55,South,169,3.0,4.0,48,0.00,,---,0.00,VWS V14.01,2013-04-21 03:35:00,
2013-04-20 22:40:00,55.7,36.3,30.55,South,169,1.0,4.0,48,0.00,,---,0.00,VWS V14.01,2013-04-21 03:40:00,
2013-04-20 22:45:00,55.6,36.8,30.55,South,169,5.0,5.0,49,0.00,,---,0.00,VWS V14.01,2013-04-21 03:45:00,
2013-04-20 22:50:00,55.4,36.6,30.55,South,169,1.0,5.0,49,0.00,,---,0.00,VWS V14.01,2013-04-21 03:50:00,
2013-04-20 22:55:00,55.4,36.6,30.55,South,169,2.0,3.0,49,0.00,,---,0.00,VWS V14.01,2013-04-21 03:55:00,
2013-04-20 23:00:00,55.3,36.5,30.55,South,169,0.0,3.0,49,0.00,,---,0.00,VWS V14.01,2013-04-21 04:00:00,
2013-04-20 23:01:00,55.1,36.3,30.55,South,169,0.0,0.0,49,0.00,,---,0.00,VWS V14.01,2013-04-21 04:01:00,
2013-04-20 23:06:00,55.0,36.7,30.55,South,169,1.0,1.0,50,0.00,,---,0.00,VWS V14.01,2013-04-21 04:06:00,
2013-04-20 23:10:00,54.7,36.4,30.55,South,169,0.0,3.0,50,0.00,,---,0.00,VWS V14.01,2013-04-21 04:10:00,
2013-04-20 23:11:00,54.7,36.9,30.55,South,169,1.0,1.0,51,0.00,,---,0.00,VWS V14.01,2013-04-21 04:11:00,
2013-04-20 23:16:00,54.4,36.7,30.54,South,169,2.0,4.0,51,0.00,,---,0.00,VWS V14.01,2013-04-21 04:16:00,
2013-04-20 23:20:00,54.2,36.5,30.54,South,169,2.0,4.0,51,0.00,,---,0.00,VWS V14.01,2013-04-21 04:20:00,
2013-04-20 23:21:00,54.2,36.5,30.54,South,169,3.0,3.0,51,0.00,,---,0.00,VWS V14.01,2013-04-21 04:21:00,
2013-04-20 23:26:00,54.1,36.9,30.54,South,169,0.0,4.0,52,0.00,,---,0.00,VWS V14.01,2013-04-21 04:26:00,
2013-04-20 23:30:00,53.9,36.7,30.55,South,169,2.0,4.0,52,0.00,,---,0.00,VWS V14.01,2013-04-21 04:30:00,
2013-04-20 23:31:00,53.9,36.7,30.55,South,169,0.0,2.0,52,0.00,,---,0.00,VWS V14.01,2013-04-21 04:31:00,
2013-04-20 23:36:00,53.8,36.6,30.55,South,169,4.0,4.0,52,0.00,,---,0.00,VWS V14.01,2013-04-21 04:36:00,
2013-04-20 23:40:00,53.8,36.6,30.55,South,169,0.0,4.0,52,0.00,,---,0.00,VWS V14.01,2013-04-21 04:40:00,
2013-04-20 23:41:00,53.8,36.6,30.55,South,169,0.0,0.0,52,0.00,,---,0.00,VWS V14.01,2013-04-21 04:41:00,
2013-04-20 23:46:00,53.6,36.4,30.55,South,169,1.0,2.0,52,0.00,,---,0.00,VWS V14.01,2013-04-21 04:46:00,
2013-04-20 23:50:00,53.5,36.3,30.55,South,169,0.0,2.0,52,0.00,,---,0.00,VWS V14.01,2013-04-21 04:50:00,
2013-04-20 23:51:00,53.5,36.3,30.55,South,169,1.0,1.0,52,0.00,,---,0.00,VWS V14.01,2013-04-21 04:51:00,
2013-04-20 23:56:00,53.3,36.1,30.55,South,169,1.0,2.0,52,0.00,,---,0.00,VWS V14.01,2013-04-21 04:56:00,